Airfield :
LOGIN :

Register | Disclaimer

   EN    FR    IT 

 










Legend :    VFR   Marginal VFR   IFR   Intensive IFR   Very Intensive IFR
Visi :
Ceiling :
>= 8 km
>= 3000ft
5 to 8 km
1000 to 3000 ft
1500m to 5 km
500 to 1000 ft
800 to 1500m
200 to 500 ft
< 800m
< 200 ft
Symbols :   Thunderstorms  Fog  Heavy snow  Heavy precipitations  Wind > 20 kt
SIGMETs :     Misc.  Thunderstorms  Icing  Turbulence  Mountain Waves  Volcanic Ashes







- Airport Elevation : 782 ft
- IATA code : BGY


LIME - Orio al Serio International - Bergamo

CURRENT METAR :
  • 191050Z 25003KT 220V290 6000 -RA SCT010 BKN050 14/13 Q1004 NOSIG

EXPIRED METARs :
  • 191020Z 23003KT 190V260 6000 -RA SCT010 BKN050 14/12 Q1004 NOSIG
  • 190950Z 20003KT 160V230 5000 -RA BR SCT005 BKN050 14/12 Q1004 NOSIG
  • 190920Z VRB02KT 5000 -RA BR SCT005 BKN050 14/12 Q1004 RERA NOSIG
  • 190850Z VRB01KT 4000 RA BR SCT010 BKN050 13/12 Q1004 NOSIG
  • 190820Z VRB02KT 6000 -RA SCT010 BKN050 13/12 Q1004 NOSIG

TAF TAF LIME
Valid from the 19 at 06:00 until the 20 at 06:00 UTC


190500Z 1906/2006 VRB05KT 7000 SCT020 BKN060
TEMPO 1906/2002 4000 RA
PROB40
TEMPO 1912/1920 3000 TSRA
No reported NOTAMs for that airfield.



MET'MAP, your aeronautical weather chart ! - Copyright ORBIFLY December 2007 - Disclaimer

ORBIFLY MET'MAP TEAM :

Programming & Development : Alexandra Zaïnal
Concept & Development : Baudouin d'Aumeries
Co-Development & Prog : Marc-Olivier Méhu
Technical & hardware support : Manuel Goepfert

Contact : metmap@orbifly.com




SOURCES & CREDITS :

   NOAA